Portada
METAR-TAF:

METAR-TAF

Aeroports :

Troyes, França

latitud: 48-20N, longitud: 004-01E, altitud: 118 m

Observació

L'informe es va fer fa 35 minuts, a les 13:30 UTC
Vent 11 kt del Oest/Sud-Oest, variant entre Sud-Oest i Oest
Temperatura 24°C
Humitat 41%
Pressió 1020 hPa
Visibilitat 10 km o més
sense núvols per sota de 1500 mi sense presència de cumulonimbus.

METAR: LFQB 031330Z AUTO 25011KT 220V280 CAVOK 24/10 Q1020

Hora: 16:05 (14:05 UTC)


TAF: manca

Observacions i pronòstics meteorològics de més de 4000 aeroports (METAR i TAF).

Les estacions disponibles són els punts grocs i vermells al mapa.

Posi el ratolí al punt desitjat per veure el nom de l'estació.

Feu clic per veure les observacions i els pronòstics meteorològics.

Per canviar el mapa: feu clic els botons verds amb una creu de color negre per apropar; al botó verd amb un guió per allunyar la imatge; o en les fletxes verdes per a mapes adjacents.


METAR-TAF: